Time;durP1;ratioP1;P1;durP2;ratioP2;P2;SDS_P1;SDS_P2;PMS_P1;PMS_P2;Temp;Humidity;BMP_temperature;BMP_pressure;BME280_temperature;BME280_humidity;BME280_pressure;Samples;Min_cycle;Max_cycle;Signal;HPM_P1;HPM_P2
2021/07/20 00:01:55;;;;;;;18.00;9.20;;;;;;;;;;5001913;28;20050;-86
2021/07/20 00:04:20;;;;;;;20.88;9.38;;;;;;;;;;5007016;28;20545;-85
2021/07/20 00:06:45;;;;;;;19.25;9.25;;;;;;;;;;5000280;28;20046;-86
2021/07/20 00:09:11;;;;;;;18.73;10.20;;;;;;;;;;5002636;28;20029;-85
2021/07/20 00:11:37;;;;;;;21.90;10.10;;;;;;;;;;5001804;28;20060;-85
2021/07/20 00:14:02;;;;;;;20.02;9.48;;;;;;;;;;5001235;28;20378;-85
2021/07/20 00:16:28;;;;;;;17.27;9.10;;;;;;;;;;5000687;28;20022;-86
2021/07/20 00:18:54;;;;;;;26.30;9.02;;;;;;;;;;5000285;28;20434;-86
2021/07/20 00:21:19;;;;;;;20.10;9.60;;;;;;;;;;5002498;28;20030;-87
2021/07/20 00:23:45;;;;;;;18.40;9.82;;;;;;;;;;5001207;28;20105;-85
2021/07/20 00:26:10;;;;;;;19.88;9.02;;;;;;;;;;5001420;28;20026;-86
2021/07/20 00:28:36;;;;;;;23.20;10.40;;;;;;;;;;5012276;28;20026;-85
2021/07/20 00:31:03;;;;;;;19.45;9.93;;;;;;;;;;5002952;28;20033;-85
2021/07/20 00:33:28;;;;;;;24.58;10.05;;;;;;;;;;5000852;28;20106;-85
2021/07/20 00:35:54;;;;;;;22.05;9.73;;;;;;;;;;5000976;28;20046;-86
2021/07/20 00:38:19;;;;;;;19.85;10.00;;;;;;;;;;5000967;28;20026;-85
2021/07/20 00:40:45;;;;;;;19.40;9.73;;;;;;;;;;4999710;28;20018;-85
2021/07/20 00:43:12;;;;;;;22.02;10.45;;;;;;;;;;5001310;28;20027;-86
2021/07/20 00:45:39;;;;;;;18.83;9.80;;;;;;;;;;5001237;28;20030;-86
2021/07/20 00:48:04;;;;;;;19.35;9.43;;;;;;;;;;5001476;28;20026;-85
2021/07/20 00:50:41;;;;;;;20.98;9.77;;;;;;;;;;5001726;28;20033;-86
2021/07/20 00:53:08;;;;;;;25.75;9.95;;;;;;;;;;5001855;28;20022;-86
2021/07/20 00:55:37;;;;;;;21.08;10.18;;;;;;;;;;5001319;28;20042;-86
2021/07/20 00:58:04;;;;;;;24.67;10.35;;;;;;;;;;5001239;28;20030;-87
2021/07/20 01:00:29;;;;;;;18.50;10.05;;;;;;;;;;5001151;28;20030;-85
2021/07/20 01:02:55;;;;;;;21.92;10.13;;;;;;;;;;5000376;28;20034;-86
2021/07/20 01:05:22;;;;;;;23.17;10.10;;;;;;;;;;5000988;28;20456;-86
2021/07/20 01:07:48;;;;;;;18.60;9.57;;;;;;;;;;5002064;28;20022;-86
2021/07/20 01:10:16;;;;;;;23.00;10.70;;;;;;;;;;5003148;28;20018;-85
2021/07/20 01:12:43;;;;;;;22.17;10.20;;;;;;;;;;5001881;28;20030;-86
2021/07/20 01:15:10;;;;;;;21.17;10.25;;;;;;;;;;5004616;28;20053;-85
2021/07/20 01:17:40;;;;;;;18.67;9.63;;;;;;;;;;5006083;28;20023;-85
2021/07/20 01:20:17;;;;;;;21.13;10.30;;;;;;;;;;5005687;28;20090;-86
2021/07/20 01:23:00;;;;;;;22.67;10.88;;;;;;;;;;5005631;28;20026;-86
2021/07/20 01:25:26;;;;;;;19.95;9.95;;;;;;;;;;5004634;28;20037;-86
2021/07/20 01:28:02;;;;;;;19.40;10.05;;;;;;;;;;5004397;28;20023;-86
2021/07/20 01:30:29;;;;;;;22.13;10.00;;;;;;;;;;5006376;28;20054;-86
2021/07/20 01:32:55;;;;;;;24.30;10.23;;;;;;;;;;5006222;28;20049;-86
2021/07/20 01:35:22;;;;;;;20.08;10.13;;;;;;;;;;5006176;28;20042;-85
2021/07/20 01:37:50;;;;;;;19.52;10.25;;;;;;;;;;5006224;28;20022;-86
2021/07/20 01:40:15;;;;;;;19.42;9.77;;;;;;;;;;5008585;28;20065;-85
2021/07/20 01:42:45;;;;;;;22.30;10.48;;;;;;;;;;5008134;28;20034;-86
2021/07/20 01:45:11;;;;;;;23.55;10.98;;;;;;;;;;5008110;28;20026;-86
2021/07/20 01:47:38;;;;;;;22.55;9.13;;;;;;;;;;5007230;28;20034;-86
2021/07/20 01:50:06;;;;;;;20.08;10.05;;;;;;;;;;5005511;28;20025;-85
2021/07/20 01:52:32;;;;;;;20.88;9.52;;;;;;;;;;5006620;28;20022;-88
2021/07/20 01:54:58;;;;;;;21.30;9.90;;;;;;;;;;5006516;28;20437;-86
2021/07/20 01:57:24;;;;;;;22.05;10.90;;;;;;;;;;5006570;28;20478;-86
2021/07/20 01:59:50;;;;;;;24.25;10.35;;;;;;;;;;5007827;28;20035;-86
2021/07/20 02:02:52;;;;;;;30.33;10.60;;;;;;;;;;5006752;28;20027;-86
2021/07/20 02:10:49;;;;;;;24.13;11.18;;;;;;;;;;5005184;28;20478;-86
2021/07/20 02:13:16;;;;;;;22.92;10.77;;;;;;;;;;5003998;28;20035;-86
2021/07/20 02:15:44;;;;;;;24.77;11.48;;;;;;;;;;5002565;28;20022;-85
2021/07/20 02:18:10;;;;;;;21.65;9.90;;;;;;;;;;5011099;28;20151;-85
2021/07/20 02:20:40;;;;;;;26.90;10.95;;;;;;;;;;5004505;28;20031;-86
2021/07/20 02:23:06;;;;;;;25.17;11.13;;;;;;;;;;5005832;28;20097;-86
2021/07/20 02:25:32;;;;;;;21.52;10.77;;;;;;;;;;5004092;28;20033;-85
2021/07/20 02:27:59;;;;;;;24.33;10.95;;;;;;;;;;5004876;28;20458;-85
2021/07/20 02:30:25;;;;;;;25.15;11.43;;;;;;;;;;5004750;28;20485;-85
2021/07/20 02:32:52;;;;;;;26.23;11.15;;;;;;;;;;5003607;28;20030;-85
2021/07/20 02:35:24;;;;;;;25.63;10.82;;;;;;;;;;5004690;28;20026;-86
2021/07/20 02:37:51;;;;;;;24.58;11.63;;;;;;;;;;5004827;28;20454;-85
2021/07/20 02:40:18;;;;;;;27.83;11.80;;;;;;;;;;5012598;28;20084;-86
2021/07/20 02:42:44;;;;;;;21.25;10.65;;;;;;;;;;5005835;28;20033;-86
2021/07/20 02:45:11;;;;;;;25.50;10.88;;;;;;;;;;5003455;28;20026;-86
2021/07/20 02:47:38;;;;;;;22.08;10.45;;;;;;;;;;5002763;28;20097;-85
2021/07/20 02:50:10;;;;;;;23.60;11.82;;;;;;;;;;5003387;28;20026;-86
2021/07/20 02:52:38;;;;;;;25.73;12.02;;;;;;;;;;5003702;28;20022;-86
2021/07/20 02:55:04;;;;;;;25.17;10.95;;;;;;;;;;5003652;28;20058;-86
2021/07/20 02:57:32;;;;;;;23.08;11.60;;;;;;;;;;5003706;28;20039;-86
2021/07/20 02:59:59;;;;;;;25.05;12.32;;;;;;;;;;5004514;28;20082;-86
2021/07/20 03:02:25;;;;;;;23.42;11.50;;;;;;;;;;5002878;28;20053;-86
2021/07/20 03:04:51;;;;;;;25.50;11.18;;;;;;;;;;5004892;28;20469;-86
2021/07/20 03:07:23;;;;;;;28.88;12.40;;;;;;;;;;5004645;28;20089;-86
2021/07/20 03:09:50;;;;;;;26.95;11.98;;;;;;;;;;5002592;28;20088;-86
2021/07/20 03:12:17;;;;;;;25.58;11.90;;;;;;;;;;5003379;28;20023;-85
2021/07/20 03:14:43;;;;;;;23.77;11.43;;;;;;;;;;5004426;28;20037;-85
2021/07/20 03:17:10;;;;;;;25.05;12.05;;;;;;;;;;5002015;28;20029;-85
2021/07/20 03:19:38;;;;;;;22.45;11.85;;;;;;;;;;5003510;28;20037;-86
2021/07/20 03:22:07;;;;;;;26.63;12.23;;;;;;;;;;5001901;28;20029;-85
2021/07/20 03:24:35;;;;;;;27.30;11.73;;;;;;;;;;4998827;28;20161;-85
2021/07/20 03:27:03;;;;;;;23.90;11.48;;;;;;;;;;4998503;28;20038;-85
2021/07/20 03:29:29;;;;;;;26.05;12.35;;;;;;;;;;4996626;28;20030;-85
2021/07/20 03:31:55;;;;;;;26.55;11.95;;;;;;;;;;4996433;28;20033;-85
2021/07/20 03:34:22;;;;;;;29.13;12.85;;;;;;;;;;4998347;28;20037;-86
2021/07/20 03:36:48;;;;;;;26.33;12.07;;;;;;;;;;4997321;28;20398;-84
2021/07/20 03:39:14;;;;;;;27.25;11.80;;;;;;;;;;4998952;28;20030;-83
2021/07/20 03:41:42;;;;;;;28.38;11.75;;;;;;;;;;5010284;28;20026;-83
2021/07/20 03:44:10;;;;;;;24.05;12.10;;;;;;;;;;5006606;28;20030;-84
2021/07/20 03:46:36;;;;;;;26.02;11.18;;;;;;;;;;4999871;28;20114;-84
2021/07/20 03:49:03;;;;;;;26.75;11.82;;;;;;;;;;4997350;28;20061;-85
2021/07/20 03:51:30;;;;;;;25.75;11.40;;;;;;;;;;4999586;28;20042;-84
2021/07/20 03:53:55;;;;;;;29.42;12.27;;;;;;;;;;4997959;28;20022;-84
2021/07/20 03:56:22;;;;;;;30.90;11.25;;;;;;;;;;4996357;28;20025;-86
2021/07/20 03:58:49;;;;;;;27.48;11.38;;;;;;;;;;4996249;28;20022;-86
2021/07/20 04:01:16;;;;;;;26.40;11.43;;;;;;;;;;4995314;28;20045;-86
2021/07/20 04:03:45;;;;;;;26.70;11.82;;;;;;;;;;4996885;28;20030;-84
2021/07/20 04:06:14;;;;;;;22.48;11.15;;;;;;;;;;4996457;28;20018;-84
2021/07/20 04:08:40;;;;;;;28.17;11.38;;;;;;;;;;4995722;28;20026;-83
2021/07/20 04:11:06;;;;;;;24.80;11.57;;;;;;;;;;4997556;28;20401;-84
2021/07/20 04:13:32;;;;;;;22.52;10.80;;;;;;;;;;4996084;28;20437;-85
2021/07/20 04:16:01;;;;;;;34.33;11.90;;;;;;;;;;4996943;28;20105;-84
2021/07/20 04:18:28;;;;;;;24.25;10.90;;;;;;;;;;4995299;28;20023;-84
2021/07/20 04:20:55;;;;;;;23.55;10.95;;;;;;;;;;4997845;28;20500;-84
2021/07/20 04:23:23;;;;;;;25.30;11.32;;;;;;;;;;4997547;28;20428;-84
2021/07/20 04:25:51;;;;;;;29.83;11.05;;;;;;;;;;4995493;28;20022;-84
2021/07/20 04:28:18;;;;;;;24.92;10.52;;;;;;;;;;4996425;28;20029;-85
2021/07/20 04:30:45;;;;;;;26.05;11.32;;;;;;;;;;4996833;28;20045;-85
2021/07/20 04:33:15;;;;;;;24.52;11.00;;;;;;;;;;4997118;28;20454;-85
2021/07/20 04:35:42;;;;;;;27.60;11.77;;;;;;;;;;4997566;28;20022;-85
2021/07/20 04:38:10;;;;;;;22.65;10.57;;;;;;;;;;4997025;28;20500;-85
2021/07/20 04:40:39;;;;;;;22.90;10.45;;;;;;;;;;4996597;28;20080;-86
2021/07/20 04:43:06;;;;;;;24.92;11.23;;;;;;;;;;4996145;28;20022;-86
2021/07/20 04:45:31;;;;;;;25.48;11.20;;;;;;;;;;4996059;28;20600;-85
2021/07/20 04:47:57;;;;;;;28.30;11.25;;;;;;;;;;5011947;28;20038;-85
2021/07/20 04:50:27;;;;;;;24.35;11.10;;;;;;;;;;4997998;28;20477;-86
2021/07/20 04:52:53;;;;;;;27.55;10.88;;;;;;;;;;4999888;28;20049;-86
2021/07/20 04:55:19;;;;;;;25.90;10.55;;;;;;;;;;4996205;28;20034;-86
2021/07/20 04:57:44;;;;;;;23.25;10.05;;;;;;;;;;4996522;28;20018;-86
2021/07/20 05:00:10;;;;;;;24.48;10.88;;;;;;;;;;4996040;28;20050;-85
2021/07/20 05:02:38;;;;;;;28.13;10.35;;;;;;;;;;4996813;28;20478;-86
2021/07/20 05:05:07;;;;;;;23.35;10.45;;;;;;;;;;4998044;28;20061;-86
2021/07/20 05:07:33;;;;;;;24.83;10.20;;;;;;;;;;4997568;28;20076;-85
2021/07/20 05:09:59;;;;;;;22.30;9.52;;;;;;;;;;4996969;28;20543;-86
2021/07/20 05:12:25;;;;;;;20.88;9.48;;;;;;;;;;4996317;28;20117;-85
2021/07/20 05:14:51;;;;;;;28.23;10.65;;;;;;;;;;4996530;28;20019;-87
2021/07/20 05:17:17;;;;;;;24.27;11.43;;;;;;;;;;4997660;28;20073;-86
2021/07/20 05:19:42;;;;;;;21.42;10.45;;;;;;;;;;4994999;28;20077;-86
2021/07/20 05:22:08;;;;;;;23.83;10.88;;;;;;;;;;4996455;28;20442;-85
2021/07/20 05:24:34;;;;;;;25.20;10.70;;;;;;;;;;4996508;28;20026;-85
2021/07/20 05:27:01;;;;;;;23.63;10.75;;;;;;;;;;4996175;28;20530;-85
2021/07/20 05:29:27;;;;;;;22.00;10.32;;;;;;;;;;4999937;28;20053;-85
2021/07/20 05:31:54;;;;;;;23.23;10.32;;;;;;;;;;4996523;28;20026;-85
2021/07/20 05:34:20;;;;;;;24.40;10.40;;;;;;;;;;4998984;28;20077;-85
2021/07/20 05:36:45;;;;;;;21.13;10.38;;;;;;;;;;4998358;28;20026;-86
2021/07/20 05:39:12;;;;;;;19.83;10.32;;;;;;;;;;5000607;28;20022;-85
2021/07/20 05:41:41;;;;;;;20.77;9.40;;;;;;;;;;5002838;28;20034;-85
2021/07/20 05:44:11;;;;;;;20.83;9.80;;;;;;;;;;5000988;28;20061;-84
2021/07/20 05:46:38;;;;;;;22.60;10.93;;;;;;;;;;5000349;28;20055;-85
2021/07/20 05:49:04;;;;;;;26.88;10.25;;;;;;;;;;5002029;28;20022;-85
2021/07/20 05:51:29;;;;;;;29.52;9.60;;;;;;;;;;5001883;28;20022;-86
2021/07/20 05:53:55;;;;;;;26.17;9.13;;;;;;;;;;4999323;28;20037;-85
2021/07/20 05:56:22;;;;;;;19.15;9.25;;;;;;;;;;4999830;28;20025;-86
2021/07/20 05:58:47;;;;;;;22.63;9.20;;;;;;;;;;5004342;28;20053;-85
2021/07/20 06:01:13;;;;;;;18.00;9.73;;;;;;;;;;5006868;28;20023;-84
2021/07/20 06:03:40;;;;;;;18.63;9.02;;;;;;;;;;5001249;28;20030;-84
2021/07/20 06:06:06;;;;;;;16.42;7.93;;;;;;;;;;5000857;28;20030;-84
2021/07/20 06:08:33;;;;;;;17.73;8.55;;;;;;;;;;5000109;28;20402;-84
2021/07/20 06:11:04;;;;;;;20.83;9.25;;;;;;;;;;4999404;28;20026;-84
2021/07/20 06:13:37;;;;;;;21.65;8.80;;;;;;;;;;4999741;28;20033;-84
2021/07/20 06:16:05;;;;;;;21.08;8.98;;;;;;;;;;4999808;28;20053;-84
2021/07/20 06:18:31;;;;;;;27.20;8.57;;;;;;;;;;5000560;28;20050;-85
2021/07/20 06:21:00;;;;;;;27.85;9.85;;;;;;;;;;5000895;28;20058;-84
2021/07/20 06:23:29;;;;;;;21.38;9.45;;;;;;;;;;4996953;28;20026;-84
2021/07/20 06:25:55;;;;;;;20.15;9.15;;;;;;;;;;5007369;28;20018;-84
2021/07/20 06:28:24;;;;;;;18.95;8.88;;;;;;;;;;5004397;28;20022;-84
2021/07/20 06:30:50;;;;;;;24.13;8.45;;;;;;;;;;5003303;28;20041;-84
2021/07/20 06:33:18;;;;;;;22.65;9.35;;;;;;;;;;5003857;28;20109;-84
2021/07/20 06:35:46;;;;;;;18.00;8.95;;;;;;;;;;5001016;28;20030;-84
2021/07/20 06:38:14;;;;;;;17.50;8.68;;;;;;;;;;5002521;28;20018;-84
2021/07/20 06:40:42;;;;;;;22.85;8.07;;;;;;;;;;5002598;28;20052;-84
2021/07/20 06:43:08;;;;;;;17.15;8.05;;;;;;;;;;5002271;28;20026;-84
2021/07/20 06:45:36;;;;;;;20.42;7.90;;;;;;;;;;4998068;28;20060;-85
2021/07/20 06:48:03;;;;;;;23.63;7.63;;;;;;;;;;4997708;28;20030;-86
2021/07/20 06:50:28;;;;;;;11.90;5.82;;;;;;;;;;4997489;28;20026;-86
2021/07/20 06:52:54;;;;;;;9.77;5.70;;;;;;;;;;4997499;28;20565;-86
2021/07/20 06:55:22;;;;;;;11.25;5.90;;;;;;;;;;5010930;28;20069;-85
2021/07/20 06:57:48;;;;;;;9.95;5.50;;;;;;;;;;5000576;28;20038;-86
2021/07/20 07:00:18;;;;;;;9.32;5.38;;;;;;;;;;4997522;28;20026;-86
2021/07/20 07:02:48;;;;;;;11.85;6.10;;;;;;;;;;4997414;28;20061;-86
2021/07/20 07:05:16;;;;;;;10.95;5.78;;;;;;;;;;4998262;28;20478;-86
2021/07/20 07:07:45;;;;;;;9.68;5.70;;;;;;;;;;4996952;28;20023;-86
2021/07/20 07:10:14;;;;;;;10.80;5.88;;;;;;;;;;4996887;28;20490;-86
2021/07/20 07:12:40;;;;;;;13.77;6.40;;;;;;;;;;4997188;28;20414;-86
2021/07/20 07:15:07;;;;;;;10.20;5.88;;;;;;;;;;4996965;28;20100;-86
2021/07/20 07:17:33;;;;;;;9.95;5.28;;;;;;;;;;4997217;28;20024;-86
2021/07/20 07:20:01;;;;;;;12.95;6.32;;;;;;;;;;4996971;28;20022;-86
2021/07/20 07:22:27;;;;;;;12.77;5.65;;;;;;;;;;4999418;28;20108;-86
2021/07/20 07:24:53;;;;;;;14.95;5.45;;;;;;;;;;4998340;28;20025;-86
2021/07/20 07:27:20;;;;;;;9.25;5.95;;;;;;;;;;4998018;28;20022;-86
2021/07/20 07:29:46;;;;;;;16.42;5.35;;;;;;;;;;4997953;28;20022;-86
2021/07/20 07:32:12;;;;;;;10.23;5.05;;;;;;;;;;4998224;28;20061;-86
2021/07/20 07:34:38;;;;;;;10.52;5.65;;;;;;;;;;4998809;28;20044;-86
2021/07/20 07:37:04;;;;;;;8.60;4.32;;;;;;;;;;4996766;28;20386;-86
2021/07/20 07:39:31;;;;;;;9.57;4.82;;;;;;;;;;4996474;28;20041;-86
2021/07/20 07:41:57;;;;;;;10.73;5.07;;;;;;;;;;4996216;28;20081;-86
2021/07/20 07:44:24;;;;;;;9.98;4.78;;;;;;;;;;4997354;28;20026;-86
2021/07/20 07:46:51;;;;;;;6.45;4.05;;;;;;;;;;4996117;28;20026;-87
2021/07/20 07:49:16;;;;;;;6.97;4.13;;;;;;;;;;4997260;28;20433;-86
2021/07/20 07:51:44;;;;;;;11.32;4.90;;;;;;;;;;4996137;28;20022;-86
2021/07/20 07:54:11;;;;;;;6.80;4.35;;;;;;;;;;4996751;28;20027;-86
2021/07/20 07:56:37;;;;;;;8.48;4.53;;;;;;;;;;4997896;28;20477;-86
2021/07/20 07:59:03;;;;;;;7.18;3.88;;;;;;;;;;4997553;28;20038;-86
2021/07/20 08:01:31;;;;;;;7.78;3.83;;;;;;;;;;4996080;28;20031;-85
2021/07/20 08:03:58;;;;;;;6.85;4.00;;;;;;;;;;4997419;28;20057;-85
2021/07/20 08:06:26;;;;;;;8.85;4.15;;;;;;;;;;4997706;28;20418;-85
2021/07/20 08:09:02;;;;;;;11.70;4.50;;;;;;;;;;4996434;28;20052;-85
2021/07/20 08:11:29;;;;;;;7.75;3.22;;;;;;;;;;5009293;28;20029;-86
2021/07/20 08:13:58;;;;;;;9.90;4.20;;;;;;;;;;5001148;28;20022;-86
2021/07/20 08:16:27;;;;;;;5.70;3.45;;;;;;;;;;5002765;28;20066;-85
2021/07/20 08:18:53;;;;;;;9.38;3.90;;;;;;;;;;5018721;28;20033;-85
2021/07/20 08:21:19;;;;;;;9.05;3.40;;;;;;;;;;5014989;28;20030;-85
2021/07/20 08:23:45;;;;;;;4.72;3.13;;;;;;;;;;4999207;28;20022;-85
2021/07/20 08:26:25;;;;;;;8.02;3.90;;;;;;;;;;4997933;28;20026;-85
2021/07/20 08:29:06;;;;;;;11.85;3.92;;;;;;;;;;4997003;28;20033;-85
2021/07/20 08:31:40;;;;;;;8.27;3.92;;;;;;;;;;4995006;28;20036;-85
2021/07/20 08:34:08;;;;;;;6.32;4.10;;;;;;;;;;4997399;28;20049;-85
2021/07/20 08:36:38;;;;;;;9.52;4.22;;;;;;;;;;4996307;28;20117;-85
2021/07/20 08:39:05;;;;;;;8.60;4.25;;;;;;;;;;4995415;28;20036;-85
2021/07/20 08:41:40;;;;;;;7.43;4.70;;;;;;;;;;4996527;28;20026;-85
2021/07/20 08:44:35;;;;;;;8.70;4.30;;;;;;;;;;4996081;28;20026;-85
2021/07/20 08:47:09;;;;;;;11.05;4.55;;;;;;;;;;4995881;28;20018;-85
2021/07/20 09:06:36;;;;;;;10.00;4.40;;;;;;;;;;4996522;28;20402;-85
2021/07/20 09:09:14;;;;;;;10.15;4.88;;;;;;;;;;4995203;28;20050;-85
2021/07/20 09:11:41;;;;;;;7.47;4.15;;;;;;;;;;4995287;28;20452;-85
2021/07/20 09:14:17;;;;;;;5.72;4.00;;;;;;;;;;4995398;28;20375;-85
2021/07/20 09:16:49;;;;;;;12.68;4.70;;;;;;;;;;4996828;28;20022;-85
2021/07/20 09:19:41;;;;;;;;;;;;;;;;;;4995712;28;20022;-86
2021/07/20 09:22:11;;;;;;;14.75;4.65;;;;;;;;;;4986763;28;20464;-86
2021/07/20 09:25:05;;;;;;;10.63;5.00;;;;;;;;;;4996259;28;20037;-86
2021/07/20 09:27:41;;;;;;;9.05;5.15;;;;;;;;;;4995912;28;20023;-86
2021/07/20 09:30:19;;;;;;;8.95;4.43;;;;;;;;;;4996655;28;20101;-86
2021/07/20 09:33:02;;;;;;;9.55;4.60;;;;;;;;;;4995677;28;20441;-86
2021/07/20 09:35:35;;;;;;;7.40;3.85;;;;;;;;;;4994970;28;20033;-86
2021/07/20 09:38:21;;;;;;;11.05;4.80;;;;;;;;;;4995060;28;20037;-86
2021/07/20 09:41:14;;;;;;;9.38;4.45;;;;;;;;;;4994549;28;20448;-86
2021/07/20 09:43:58;;;;;;;10.15;4.05;;;;;;;;;;4996544;28;20034;-86
2021/07/20 09:47:02;;;;;;;11.15;4.88;;;;;;;;;;4995757;28;20448;-86
2021/07/20 09:49:49;;;;;;;9.05;4.20;;;;;;;;;;4993963;28;20544;-86
2021/07/20 09:52:41;;;;;;;9.77;4.13;;;;;;;;;;4991420;28;20046;-86
2021/07/20 09:55:25;;;;;;;10.00;4.25;;;;;;;;;;4996388;28;20026;-86
2021/07/20 09:58:14;;;;;;;8.68;4.13;;;;;;;;;;4995375;28;20452;-86
2021/07/20 10:01:17;;;;;;;8.15;5.50;;;;;;;;;;4998628;28;20117;-86
2021/07/20 10:03:55;;;;;;;10.82;6.13;;;;;;;;;;4999398;28;20060;-85
2021/07/20 10:06:20;;;;;;;11.20;6.18;;;;;;;;;;5000811;28;20026;-86
2021/07/20 10:08:48;;;;;;;11.95;6.07;;;;;;;;;;5001874;28;20030;-85
2021/07/20 10:11:25;;;;;;;9.82;4.53;;;;;;;;;;5007726;28;20034;-85
2021/07/20 10:14:07;;;;;;;8.25;4.65;;;;;;;;;;5003376;28;20034;-85
2021/07/20 10:16:57;;;;;;;8.80;4.70;;;;;;;;;;5001657;28;20049;-85
2021/07/20 10:19:45;;;;;;;9.05;4.53;;;;;;;;;;5001628;28;20076;-84
2021/07/20 10:22:15;;;;;;;7.10;4.47;;;;;;;;;;5001197;28;20037;-85
2021/07/20 10:25:14;;;;;;;8.48;4.05;;;;;;;;;;5002054;28;20033;-84
2021/07/20 10:27:47;;;;;;;10.45;5.00;;;;;;;;;;5003536;28;20383;-85
2021/07/20 10:30:14;;;;;;;8.50;4.55;;;;;;;;;;5003763;28;20076;-85
2021/07/20 10:33:13;;;;;;;10.57;4.32;;;;;;;;;;5006690;28;20524;-85
2021/07/20 10:35:55;;;;;;;6.80;3.90;;;;;;;;;;5006515;28;20038;-84
2021/07/20 10:38:30;;;;;;;8.85;4.55;;;;;;;;;;5006651;28;20022;-86
2021/07/20 10:40:59;;;;;;;10.15;4.70;;;;;;;;;;5012899;28;20022;-83
2021/07/20 10:43:32;;;;;;;11.98;5.00;;;;;;;;;;5020189;28;20037;-84
2021/07/20 10:45:59;;;;;;;7.65;4.65;;;;;;;;;;5008008;28;20066;-85
2021/07/20 10:48:30;;;;;;;6.97;3.97;;;;;;;;;;5015451;28;20112;-83
2021/07/20 10:51:11;;;;;;;8.73;4.28;;;;;;;;;;5010448;28;20022;-86
2021/07/20 10:53:48;;;;;;;8.60;4.50;;;;;;;;;;5007670;28;20041;-85
2021/07/20 10:56:29;;;;;;;7.25;3.70;;;;;;;;;;5006941;28;20478;-84
2021/07/20 10:59:19;;;;;;;8.23;3.75;;;;;;;;;;5005470;28;20482;-85
2021/07/20 11:01:55;;;;;;;9.23;3.53;;;;;;;;;;5005135;28;20031;-85
2021/07/20 11:05:00;;;;;;;6.95;3.55;;;;;;;;;;5005526;28;20034;-85
2021/07/20 11:07:49;;;;;;;5.47;3.63;;;;;;;;;;5005570;28;20078;-84
2021/07/20 11:10:19;;;;;;;7.10;3.85;;;;;;;;;;5008671;28;20010;-85
2021/07/20 11:12:49;;;;;;;8.57;3.50;;;;;;;;;;5007113;28;20038;-85
2021/07/20 11:15:15;;;;;;;7.95;3.70;;;;;;;;;;5004063;28;20026;-85
2021/07/20 11:17:42;;;;;;;9.98;4.30;;;;;;;;;;5005028;28;20026;-85
2021/07/20 11:20:15;;;;;;;7.30;3.38;;;;;;;;;;5004614;28;20027;-84
2021/07/20 11:22:41;;;;;;;9.45;3.42;;;;;;;;;;5002901;28;20026;-84
2021/07/20 11:25:08;;;;;;;6.47;3.10;;;;;;;;;;5002337;28;20445;-85
2021/07/20 11:27:39;;;;;;;6.57;3.58;;;;;;;;;;5003901;28;20026;-85
2021/07/20 11:30:09;;;;;;;7.45;3.25;;;;;;;;;;5004939;28;20019;-83
2021/07/20 11:32:36;;;;;;;8.88;3.53;;;;;;;;;;5005823;28;20033;-84
2021/07/20 11:35:19;;;;;;;8.60;3.65;;;;;;;;;;5004717;28;20037;-85
2021/07/20 11:37:52;;;;;;;8.98;3.83;;;;;;;;;;5004263;28;20022;-85
2021/07/20 11:43:11;;;;;;;6.80;3.40;;;;;;;;;;5056471;23;20046;-88
2021/07/20 11:45:51;;;;;;;6.13;3.35;;;;;;;;;;5036848;28;20505;-86
2021/07/20 11:48:16;;;;;;;6.45;3.03;;;;;;;;;;5031611;28;20037;-86
2021/07/20 11:51:01;;;;;;;5.03;2.85;;;;;;;;;;5031071;28;20489;-85
2021/07/20 11:53:49;;;;;;;5.25;3.25;;;;;;;;;;5032840;28;20021;-86
2021/07/20 11:56:22;;;;;;;5.38;3.05;;;;;;;;;;5031419;28;20090;-84
2021/07/20 11:59:15;;;;;;;6.78;3.42;;;;;;;;;;5035655;28;20040;-84
2021/07/20 12:01:46;;;;;;;4.60;2.88;;;;;;;;;;5031911;28;20056;-84
2021/07/20 12:04:19;;;;;;;8.38;3.72;;;;;;;;;;5026694;28;20054;-85
2021/07/20 12:07:13;;;;;;;7.28;3.83;;;;;;;;;;5025907;28;20033;-84
2021/07/20 12:09:51;;;;;;;8.70;3.50;;;;;;;;;;5022836;28;20468;-84
2021/07/20 12:12:18;;;;;;;6.97;3.03;;;;;;;;;;5021351;28;20017;-84
2021/07/20 12:14:44;;;;;;;7.28;3.13;;;;;;;;;;5020178;28;20022;-85
2021/07/20 12:17:09;;;;;;;5.70;3.42;;;;;;;;;;5021965;28;20034;-84
2021/07/20 12:19:36;;;;;;;7.90;3.88;;;;;;;;;;5020805;28;20029;-84
2021/07/20 12:22:05;;;;;;;8.07;3.65;;;;;;;;;;5032616;28;20022;-84
2021/07/20 12:24:33;;;;;;;5.57;3.33;;;;;;;;;;5031031;28;20044;-85
2021/07/20 12:26:59;;;;;;;8.80;3.65;;;;;;;;;;5024638;28;20022;-85
2021/07/20 12:29:27;;;;;;;5.63;3.63;;;;;;;;;;5023520;28;20034;-84
2021/07/20 12:31:52;;;;;;;6.03;3.53;;;;;;;;;;5020939;28;20022;-84
2021/07/20 12:34:20;;;;;;;5.93;3.70;;;;;;;;;;5020703;28;20034;-84
2021/07/20 12:36:46;;;;;;;6.15;4.22;;;;;;;;;;5020273;28;20017;-85
2021/07/20 12:39:16;;;;;;;9.43;3.55;;;;;;;;;;5019761;28;20060;-84
2021/07/20 12:41:51;;;;;;;6.22;3.58;;;;;;;;;;5022008;28;20041;-84
2021/07/20 12:44:18;;;;;;;6.28;3.63;;;;;;;;;;5020180;28;20068;-83
2021/07/20 12:46:44;;;;;;;9.30;4.00;;;;;;;;;;5020839;28;20030;-83
2021/07/20 12:49:12;;;;;;;6.80;3.55;;;;;;;;;;5022908;28;20032;-83
2021/07/20 12:51:48;;;;;;;6.18;3.40;;;;;;;;;;5020132;28;20026;-84
2021/07/20 12:54:13;;;;;;;7.43;3.78;;;;;;;;;;5020472;28;20139;-84
2021/07/20 12:56:39;;;;;;;7.03;3.20;;;;;;;;;;5020305;28;20054;-85
2021/07/20 12:59:06;;;;;;;8.27;3.97;;;;;;;;;;5016898;28;20049;-84
2021/07/20 13:01:32;;;;;;;5.35;2.85;;;;;;;;;;5016632;28;20030;-85
2021/07/20 13:04:00;;;;;;;8.65;3.97;;;;;;;;;;5016624;28;20033;-84
2021/07/20 13:06:26;;;;;;;6.70;3.45;;;;;;;;;;5016111;28;20089;-85
2021/07/20 13:08:52;;;;;;;8.05;3.83;;;;;;;;;;5015793;28;20033;-85
2021/07/20 13:11:18;;;;;;;7.32;3.83;;;;;;;;;;5025896;28;20021;-85
2021/07/20 13:13:45;;;;;;;7.35;3.50;;;;;;;;;;5019862;28;20057;-85
2021/07/20 13:16:16;;;;;;;4.45;3.30;;;;;;;;;;5020192;28;20092;-85
2021/07/20 13:18:42;;;;;;;7.50;3.53;;;;;;;;;;5018256;28;20433;-85
2021/07/20 13:21:14;;;;;;;5.85;3.53;;;;;;;;;;5018094;28;20026;-86
2021/07/20 13:23:41;;;;;;;6.47;3.85;;;;;;;;;;5019111;28;20543;-84
2021/07/20 13:26:06;;;;;;;7.25;3.65;;;;;;;;;;5017965;28;20026;-85
2021/07/20 13:28:33;;;;;;;6.95;3.33;;;;;;;;;;5018125;28;20029;-84
2021/07/20 13:31:01;;;;;;;6.38;3.40;;;;;;;;;;5015745;28;20026;-85
2021/07/20 13:33:26;;;;;;;7.13;3.70;;;;;;;;;;5018126;28;20026;-84
2021/07/20 13:35:55;;;;;;;4.97;3.30;;;;;;;;;;5020203;28;20434;-85
2021/07/20 13:38:23;;;;;;;8.73;3.90;;;;;;;;;;5021237;28;20057;-85
2021/07/20 13:40:49;;;;;;;9.10;4.07;;;;;;;;;;5024160;28;20034;-85
2021/07/20 13:43:14;;;;;;;7.18;3.70;;;;;;;;;;5021487;28;20034;-85
2021/07/20 13:45:40;;;;;;;6.38;4.10;;;;;;;;;;5020518;28;20092;-85
2021/07/20 13:48:10;;;;;;;5.93;4.07;;;;;;;;;;5020542;28;20056;-85
2021/07/20 13:50:36;;;;;;;7.20;3.75;;;;;;;;;;5020008;28;20072;-85
2021/07/20 13:53:06;;;;;;;10.73;4.43;;;;;;;;;;5018861;28;20045;-85
2021/07/20 13:55:32;;;;;;;6.80;4.18;;;;;;;;;;5019171;28;20034;-85
2021/07/20 13:57:58;;;;;;;6.60;4.22;;;;;;;;;;5026331;28;20033;-84
2021/07/20 14:00:25;;;;;;;4.75;3.45;;;;;;;;;;5034861;28;20026;-83
2021/07/20 14:02:52;;;;;;;7.75;4.10;;;;;;;;;;5021954;28;20025;-85
2021/07/20 14:05:19;;;;;;;5.68;4.03;;;;;;;;;;5024383;28;20470;-84
2021/07/20 14:07:44;;;;;;;8.75;3.97;;;;;;;;;;5021607;28;20048;-83
2021/07/20 14:10:10;;;;;;;7.47;4.15;;;;;;;;;;5026927;28;20030;-84
2021/07/20 14:12:36;;;;;;;5.95;3.97;;;;;;;;;;5022093;28;20049;-84
2021/07/20 14:15:05;;;;;;;6.45;3.90;;;;;;;;;;5025807;28;20036;-84
2021/07/20 14:17:31;;;;;;;7.03;3.80;;;;;;;;;;5022072;28;20028;-85
2021/07/20 14:19:57;;;;;;;6.90;3.78;;;;;;;;;;5019765;28;20040;-84
2021/07/20 14:22:24;;;;;;;9.95;4.38;;;;;;;;;;5020462;28;20081;-84
2021/07/20 14:24:52;;;;;;;7.65;3.97;;;;;;;;;;5024506;28;20084;-85
2021/07/20 14:27:18;;;;;;;5.32;3.53;;;;;;;;;;5020974;28;20026;-84
2021/07/20 14:29:49;;;;;;;6.93;5.68;;;;;;;;;;5020195;28;20029;-87
2021/07/20 14:32:19;;;;;;;8.13;4.43;;;;;;;;;;5019059;28;20040;-86
2021/07/20 14:34:53;;;;;;;5.63;3.58;;;;;;;;;;5018964;28;20033;-86
2021/07/20 14:37:35;;;;;;;7.47;3.67;;;;;;;;;;5025535;28;20022;-85
2021/07/20 14:40:11;;;;;;;6.13;3.40;;;;;;;;;;5019016;28;20021;-86
2021/07/20 14:42:38;;;;;;;5.85;3.40;;;;;;;;;;5018698;28;20255;-85
2021/07/20 14:45:07;;;;;;;7.13;4.13;;;;;;;;;;5017169;28;20033;-86
2021/07/20 14:47:32;;;;;;;5.07;3.40;;;;;;;;;;5018534;28;20026;-86
2021/07/20 14:50:07;;;;;;;4.93;3.23;;;;;;;;;;5018365;28;20030;-86
2021/07/20 14:52:36;;;;;;;7.50;3.80;;;;;;;;;;5018158;28;20255;-85
2021/07/20 14:55:15;;;;;;;5.65;4.07;;;;;;;;;;5018653;28;20030;-86
2021/07/20 14:57:47;;;;;;;5.88;4.10;;;;;;;;;;5019454;28;20018;-86
2021/07/20 15:00:13;;;;;;;5.78;3.63;;;;;;;;;;5017687;28;20022;-85
2021/07/20 15:02:39;;;;;;;8.52;3.75;;;;;;;;;;5017139;28;20408;-86
2021/07/20 15:05:22;;;;;;;8.52;3.70;;;;;;;;;;5018956;28;20029;-85
2021/07/20 15:08:00;;;;;;;6.53;3.80;;;;;;;;;;5018243;28;20033;-85
2021/07/20 15:10:32;;;;;;;19.35;4.00;;;;;;;;;;5016548;28;20026;-85
2021/07/20 15:13:01;;;;;;;5.00;3.25;;;;;;;;;;5017738;28;20036;-84